createdAt,value
2017-09-12T00:00:25.357Z,80.82
2017-09-12T00:02:53.645Z,80.66
2017-09-12T00:05:21.956Z,80.55
2017-09-12T00:07:51.037Z,80.62
2017-09-12T00:10:19.328Z,80.82
2017-09-12T00:12:47.625Z,81.06
2017-09-12T00:15:16.676Z,80.92
2017-09-12T00:17:44.980Z,81.09
2017-09-12T00:20:13.269Z,81.18
2017-09-12T00:22:42.329Z,81.20
2017-09-12T00:25:10.616Z,81.40
2017-09-12T00:27:38.937Z,81.76
2017-09-12T00:30:07.226Z,82.12
2017-09-12T00:32:35.533Z,82.01
2017-09-12T00:35:04.585Z,82.20
2017-09-12T00:37:32.893Z,82.24
2017-09-12T00:40:01.181Z,82.40
2017-09-12T00:42:29.489Z,82.49
2017-09-12T00:44:57.794Z,82.47
2017-09-12T00:47:26.086Z,82.80
2017-09-12T00:49:54.376Z,82.75
2017-09-12T00:52:22.665Z,82.67
2017-09-12T00:54:50.965Z,82.54
2017-09-12T00:57:19.256Z,82.52
2017-09-12T00:59:48.322Z,82.33
2017-09-12T01:02:16.622Z,82.35
2017-09-12T01:04:44.921Z,82.20
2017-09-12T01:07:13.213Z,82.01
2017-09-12T01:09:41.541Z,81.90
2017-09-12T01:12:09.829Z,81.98
2017-09-12T01:14:38.122Z,81.79
2017-09-12T01:17:07.189Z,81.92
2017-09-12T01:19:35.481Z,81.92
2017-09-12T01:22:04.549Z,82.12
2017-09-12T01:24:32.848Z,82.63
2017-09-12T01:27:01.148Z,82.72
2017-09-12T01:29:30.214Z,82.60
2017-09-12T01:31:59.277Z,82.33
2017-09-12T01:34:27.561Z,81.83
2017-09-12T01:36:57.201Z,81.41
2017-09-12T01:39:26.265Z,80.72
2017-09-12T01:41:54.582Z,80.09
2017-09-12T01:44:23.638Z,79.74
2017-09-12T01:46:51.930Z,79.53
2017-09-12T01:49:20.229Z,79.28
2017-09-12T01:51:49.309Z,79.29
2017-09-12T01:54:17.610Z,79.32
2017-09-12T01:56:46.669Z,79.45
2017-09-12T01:59:14.972Z,79.34
2017-09-12T02:01:44.025Z,79.56
2017-09-12T02:04:12.334Z,79.30
2017-09-12T02:06:40.627Z,79.35
2017-09-12T02:09:09.697Z,79.27
2017-09-12T02:11:37.987Z,79.33
2017-09-12T02:14:07.065Z,79.41
2017-09-12T02:16:35.362Z,79.82
2017-09-12T02:19:04.430Z,79.74
2017-09-12T02:21:32.725Z,79.63
2017-09-12T02:24:01.017Z,80.06
2017-09-12T02:26:30.093Z,80.21
2017-09-12T02:28:58.390Z,80.43
2017-09-12T02:31:27.460Z,80.75
2017-09-12T02:33:55.757Z,80.56
2017-09-12T02:36:24.865Z,80.69
2017-09-12T02:38:53.982Z,80.74
2017-09-12T02:41:22.273Z,80.81
2017-09-12T02:43:50.570Z,80.74
2017-09-12T02:46:18.873Z,80.90
2017-09-12T02:48:47.957Z,81.08
2017-09-12T02:51:16.266Z,80.86
2017-09-12T02:53:44.573Z,80.84
2017-09-12T02:56:12.870Z,80.88
2017-09-12T02:58:41.181Z,80.98
2017-09-12T03:01:10.242Z,80.99
2017-09-12T03:03:38.557Z,80.95
2017-09-12T03:06:07.631Z,81.31
2017-09-12T03:08:35.930Z,81.26
2017-09-12T03:11:05.001Z,81.24
2017-09-12T03:13:33.298Z,81.23
2017-09-12T03:16:02.374Z,81.22
2017-09-12T03:18:30.666Z,81.01
2017-09-12T03:20:59.761Z,80.98
2017-09-12T03:23:28.834Z,81.14
2017-09-12T03:25:57.131Z,81.15
2017-09-12T03:28:26.202Z,80.93
2017-09-12T03:30:54.518Z,81.26
2017-09-12T03:33:23.597Z,81.37
2017-09-12T03:35:52.664Z,81.60
2017-09-12T03:38:20.971Z,81.50
2017-09-12T03:40:50.034Z,81.36
2017-09-12T03:43:18.395Z,81.37
2017-09-12T03:45:46.691Z,81.00
2017-09-12T03:48:15.002Z,80.81
2017-09-12T03:50:44.057Z,80.99
2017-09-12T03:53:12.411Z,81.12
2017-09-12T03:55:40.708Z,81.29
2017-09-12T03:58:09.010Z,81.57
2017-09-12T04:00:37.312Z,81.75
2017-09-12T04:03:06.443Z,81.56
2017-09-12T04:05:34.755Z,81.08
2017-09-12T04:08:03.052Z,80.85
2017-09-12T04:10:32.126Z,80.96
2017-09-12T04:13:00.422Z,80.40
2017-09-12T04:15:29.496Z,80.10
2017-09-12T04:17:57.789Z,79.79
2017-09-12T04:20:26.118Z,79.55
2017-09-12T04:22:54.425Z,79.26
2017-09-12T04:25:22.727Z,79.01
2017-09-12T04:27:51.813Z,78.91
2017-09-12T04:30:20.117Z,78.46
2017-09-12T04:32:49.200Z,78.59
2017-09-12T04:35:18.280Z,78.60
2017-09-12T04:37:46.622Z,78.62
2017-09-12T04:40:14.918Z,78.82
2017-09-12T04:42:43.269Z,78.66
2017-09-12T04:45:11.557Z,78.01
2017-09-12T04:47:39.898Z,78.00
2017-09-12T04:50:08.193Z,78.12
2017-09-12T04:52:36.482Z,77.95
2017-09-12T04:55:04.782Z,77.36
2017-09-12T04:57:33.073Z,76.89
2017-09-12T05:00:01.377Z,76.46
2017-09-12T05:02:30.442Z,76.54
2017-09-12T05:04:58.753Z,76.18
2017-09-12T05:07:27.813Z,76.33
2017-09-12T05:09:56.155Z,76.58
2017-09-12T05:12:24.524Z,76.35
2017-09-12T05:14:52.814Z,75.95
2017-09-12T05:17:21.125Z,75.93
2017-09-12T05:19:49.414Z,75.70
2017-09-12T05:22:18.488Z,75.92
2017-09-12T05:24:46.821Z,75.92
2017-09-12T05:27:15.174Z,75.52
2017-09-12T05:29:44.246Z,75.20
2017-09-12T05:32:12.541Z,75.14
2017-09-12T05:34:41.606Z,75.04
2017-09-12T05:37:09.918Z,74.95
2017-09-12T05:39:38.307Z,74.69
2017-09-12T05:42:07.373Z,74.97
2017-09-12T05:44:35.706Z,74.94
2017-09-12T05:47:03.998Z,75.00
2017-09-12T05:49:32.304Z,74.58
2017-09-12T05:52:00.614Z,74.43
2017-09-12T05:54:28.901Z,74.60
2017-09-12T05:56:57.210Z,74.51
2017-09-12T05:59:25.514Z,74.37
2017-09-12T06:01:53.842Z,74.26
2017-09-12T06:04:22.141Z,74.17
2017-09-12T06:06:50.446Z,74.33
2017-09-12T06:09:18.754Z,73.90
2017-09-12T06:11:47.053Z,73.75
2017-09-12T06:14:15.363Z,73.54
2017-09-12T06:16:43.673Z,72.36
2017-09-12T06:19:12.761Z,72.12
2017-09-12T06:21:41.834Z,71.27
2017-09-12T06:24:10.170Z,70.07
2017-09-12T06:26:38.476Z,70.24
2017-09-12T06:29:06.790Z,69.37
2017-09-12T06:31:35.873Z,69.07
2017-09-12T06:34:04.495Z,68.30
2017-09-12T06:36:32.809Z,68.30
2017-09-12T06:39:01.793Z,67.81
2017-09-12T06:41:30.107Z,67.82
2017-09-12T06:43:58.427Z,67.82
2017-09-12T06:46:26.737Z,67.23
2017-09-12T06:48:55.039Z,67.57
2017-09-12T06:51:23.338Z,66.51
2017-09-12T06:53:51.630Z,67.18
2017-09-12T06:56:19.945Z,67.57
2017-09-12T06:58:49.022Z,66.64
2017-09-12T07:01:17.330Z,67.06
2017-09-12T07:03:45.655Z,66.87
2017-09-12T07:06:13.969Z,65.47
2017-09-12T07:08:42.277Z,65.65
2017-09-12T07:11:11.350Z,64.84
2017-09-12T07:13:39.654Z,63.89
2017-09-12T07:16:08.717Z,63.99
2017-09-12T07:18:37.025Z,62.70
2017-09-12T07:21:06.085Z,62.77
2017-09-12T07:23:34.418Z,62.88
2017-09-12T07:26:02.727Z,62.73
2017-09-12T07:28:31.021Z,62.21
2017-09-12T07:30:59.326Z,60.99
2017-09-12T07:33:28.393Z,61.07
2017-09-12T07:35:56.902Z,61.14
2017-09-12T07:38:25.978Z,62.60
2017-09-12T07:40:54.294Z,63.12
2017-09-12T07:43:22.615Z,64.76
2017-09-12T07:45:50.938Z,64.92
2017-09-12T07:48:20.011Z,64.84
2017-09-12T07:50:48.318Z,65.02
2017-09-12T07:53:17.389Z,65.01
2017-09-12T07:55:45.677Z,64.65
2017-09-12T07:58:14.750Z,64.34
2017-09-12T08:00:43.070Z,63.67
2017-09-12T08:03:11.390Z,62.67
2017-09-12T08:05:39.699Z,62.86
2017-09-12T08:08:08.778Z,61.85
2017-09-12T08:10:37.065Z,62.08
2017-09-12T08:13:05.374Z,62.19
2017-09-12T08:15:33.666Z,60.28
2017-09-12T08:18:01.966Z,60.15
2017-09-12T08:20:30.268Z,59.04
2017-09-12T08:22:58.553Z,58.50
2017-09-12T08:25:26.856Z,58.58
2017-09-12T08:27:55.167Z,58.11
2017-09-12T08:30:23.491Z,57.82
2017-09-12T08:32:52.562Z,56.81
2017-09-12T08:35:20.878Z,55.55
2017-09-12T08:37:49.179Z,56.06
2017-09-12T08:40:17.496Z,54.53
2017-09-12T08:42:45.790Z,56.42
2017-09-12T08:45:14.878Z,56.68
2017-09-12T08:47:43.173Z,56.41
2017-09-12T08:50:11.474Z,55.27
2017-09-12T08:52:39.985Z,57.24
2017-09-12T08:55:08.365Z,58.01
2017-09-12T08:57:36.745Z,55.54
2017-09-12T09:00:05.041Z,53.09
2017-09-12T09:02:33.345Z,54.04
2017-09-12T09:05:02.405Z,55.77
2017-09-12T09:07:30.775Z,54.81
2017-09-12T09:09:59.146Z,54.79
2017-09-12T09:12:27.450Z,53.71
2017-09-12T09:14:55.741Z,52.79
2017-09-12T09:17:24.834Z,52.56
2017-09-12T09:19:53.893Z,52.11
2017-09-12T09:22:22.185Z,54.67
2017-09-12T09:24:50.494Z,53.40
2017-09-12T09:27:19.578Z,51.96
2017-09-12T09:29:47.886Z,54.11
2017-09-12T09:32:16.193Z,55.00
2017-09-12T09:34:44.498Z,56.11
2017-09-12T09:37:12.795Z,57.41
2017-09-12T09:39:41.903Z,59.20
2017-09-12T09:42:10.204Z,59.99
2017-09-12T09:44:38.497Z,60.14
2017-09-12T09:47:06.806Z,59.96
2017-09-12T09:49:35.103Z,59.56
2017-09-12T09:52:04.166Z,58.15
2017-09-12T09:54:32.470Z,56.91
2017-09-12T09:57:01.537Z,55.37
2017-09-12T09:59:29.835Z,55.41
2017-09-12T10:01:58.907Z,54.58
2017-09-12T10:04:27.193Z,53.61
2017-09-12T10:06:55.831Z,52.34
2017-09-12T10:09:24.122Z,45.64
2017-09-12T10:11:52.426Z,50.00
2017-09-12T10:14:20.722Z,52.35
2017-09-12T10:16:49.802Z,53.31
2017-09-12T10:19:18.098Z,52.98
2017-09-12T10:21:47.198Z,53.06
2017-09-12T10:24:16.262Z,52.81
2017-09-12T10:26:44.577Z,52.18
2017-09-12T10:29:12.878Z,54.54
2017-09-12T10:31:41.166Z,54.86
2017-09-12T10:34:09.470Z,56.39
2017-09-12T10:36:37.898Z,56.64
2017-09-12T10:39:06.203Z,57.95
2017-09-12T10:41:34.515Z,58.02
2017-09-12T10:44:03.603Z,58.62
2017-09-12T10:46:31.924Z,61.74
2017-09-12T10:49:00.265Z,61.80
2017-09-12T10:51:28.553Z,62.76
2017-09-12T10:53:57.614Z,62.02
2017-09-12T10:56:25.929Z,61.29
2017-09-12T10:58:54.990Z,57.44
2017-09-12T11:01:24.061Z,57.43
2017-09-12T11:03:52.357Z,59.30
2017-09-12T11:06:20.654Z,59.81
2017-09-12T11:08:48.958Z,60.15
2017-09-12T11:11:18.034Z,60.02
2017-09-12T11:13:47.110Z,57.53
2017-09-12T11:16:15.435Z,58.44
2017-09-12T11:18:43.738Z,58.93
2017-09-12T11:21:12.029Z,57.12
2017-09-12T11:23:40.333Z,58.68
2017-09-12T11:26:08.629Z,55.82
2017-09-12T11:28:37.694Z,55.65
2017-09-12T11:31:05.993Z,54.06
2017-09-12T11:33:35.057Z,54.71
2017-09-12T11:36:03.354Z,55.24
2017-09-12T11:38:31.690Z,54.23
2017-09-12T11:41:00.782Z,53.79
2017-09-12T11:43:29.086Z,52.94
2017-09-12T11:45:57.397Z,51.85
2017-09-12T11:48:26.458Z,52.66
2017-09-12T11:50:54.769Z,51.49
2017-09-12T11:53:23.826Z,50.60
2017-09-12T11:55:52.143Z,49.39
2017-09-12T11:58:21.200Z,49.20
2017-09-12T12:00:49.525Z,49.98
2017-09-12T12:03:17.828Z,49.77
2017-09-12T12:05:46.118Z,49.94
2017-09-12T12:08:14.430Z,48.22
2017-09-12T12:10:42.726Z,47.45
2017-09-12T12:13:11.804Z,46.91
2017-09-12T12:15:40.107Z,48.76
2017-09-12T12:18:08.405Z,48.22
2017-09-12T12:20:36.697Z,49.58
2017-09-12T12:23:05.006Z,49.69
2017-09-12T12:25:33.306Z,50.98
2017-09-12T12:28:02.450Z,50.72
2017-09-12T12:30:30.750Z,51.78
2017-09-12T12:32:59.080Z,52.86
2017-09-12T12:35:27.382Z,53.32
2017-09-12T12:37:55.677Z,52.93
2017-09-12T12:40:29.795Z,51.85
2017-09-12T12:42:58.090Z,47.86
2017-09-12T12:45:26.436Z,48.86
2017-09-12T12:47:54.749Z,51.50
2017-09-12T12:50:23.817Z,51.04
2017-09-12T12:52:52.119Z,51.09
2017-09-12T12:55:21.210Z,52.10
2017-09-12T12:57:50.274Z,52.00
2017-09-12T13:00:18.578Z,50.02
2017-09-12T13:02:46.885Z,47.45
2017-09-12T13:05:15.190Z,45.79
2017-09-12T13:07:43.511Z,44.10
2017-09-12T13:10:12.587Z,45.10
2017-09-12T13:12:40.897Z,44.09
2017-09-12T13:15:09.963Z,46.25
2017-09-12T13:17:38.284Z,46.76
2017-09-12T13:20:06.577Z,46.92
2017-09-12T13:22:34.894Z,47.47
2017-09-12T13:25:03.193Z,46.08
2017-09-12T13:27:32.253Z,46.24
2017-09-12T13:30:00.562Z,47.83
2017-09-12T13:32:29.622Z,48.44
2017-09-12T13:34:57.941Z,48.71
2017-09-12T13:37:27.001Z,48.71
2017-09-12T13:39:55.297Z,48.10
2017-09-12T13:42:24.379Z,45.85
2017-09-12T13:44:52.710Z,43.66
2017-09-12T13:47:21.009Z,42.94
2017-09-12T13:49:49.305Z,39.61
2017-09-12T13:52:17.607Z,40.45
2017-09-12T13:54:46.678Z,38.87
2017-09-12T13:57:14.993Z,38.00
2017-09-12T13:59:44.058Z,38.81
2017-09-12T14:02:12.374Z,38.72
2017-09-12T14:04:40.670Z,39.25
2017-09-12T14:07:08.974Z,39.90
2017-09-12T14:09:37.271Z,40.89
2017-09-12T14:12:05.610Z,40.60
2017-09-12T14:14:33.905Z,41.80
2017-09-12T14:17:02.214Z,41.25
2017-09-12T14:19:31.278Z,41.04
2017-09-12T14:21:59.587Z,40.63
2017-09-12T14:24:28.649Z,42.39
2017-09-12T14:26:57.817Z,41.57
2017-09-12T14:29:26.117Z,42.90
2017-09-12T14:31:54.429Z,44.32
2017-09-12T14:34:23.528Z,45.25
2017-09-12T14:36:52.585Z,43.43
2017-09-12T14:39:20.881Z,41.21
2017-09-12T14:41:49.194Z,40.47
2017-09-12T14:44:18.254Z,40.39
2017-09-12T14:46:46.585Z,40.72
2017-09-12T14:49:14.877Z,40.69
2017-09-12T14:51:43.182Z,40.41
2017-09-12T14:54:11.493Z,40.67
2017-09-12T14:56:40.594Z,41.24
2017-09-12T14:59:08.890Z,40.66
2017-09-12T15:01:37.185Z,40.55
2017-09-12T15:04:05.485Z,42.54
2017-09-12T15:06:33.785Z,43.71
2017-09-12T15:09:02.855Z,44.04
2017-09-12T15:11:31.167Z,44.67
2017-09-12T15:14:00.244Z,44.00
2017-09-12T15:16:28.545Z,42.57
2017-09-12T15:18:56.845Z,41.62
2017-09-12T15:21:25.159Z,41.50
2017-09-12T15:23:53.478Z,41.55
2017-09-12T15:26:21.775Z,40.96
2017-09-12T15:28:50.069Z,41.89
2017-09-12T15:31:18.376Z,41.48
2017-09-12T15:33:46.681Z,42.70
2017-09-12T15:36:15.751Z,43.40
2017-09-12T15:38:44.061Z,43.73
2017-09-12T15:41:12.375Z,44.16
2017-09-12T15:43:40.666Z,45.00
2017-09-12T15:46:08.975Z,45.69
2017-09-12T15:48:38.038Z,45.60
2017-09-12T15:51:06.361Z,47.01
2017-09-12T15:53:34.672Z,47.37
2017-09-12T15:56:02.965Z,48.07
2017-09-12T15:58:31.279Z,48.70
2017-09-12T16:01:00.342Z,49.12
2017-09-12T16:03:28.649Z,48.24
2017-09-12T16:05:56.946Z,47.89
2017-09-12T16:08:25.254Z,46.70
2017-09-12T16:10:53.561Z,46.20
2017-09-12T16:13:21.884Z,46.15
2017-09-12T16:15:50.177Z,47.55
2017-09-12T16:18:18.474Z,48.40
2017-09-12T16:20:46.778Z,48.19
2017-09-12T16:23:15.074Z,47.70
2017-09-12T16:25:43.415Z,46.69
2017-09-12T16:28:11.755Z,47.18
2017-09-12T16:30:40.074Z,47.85
2017-09-12T16:33:08.374Z,48.62
2017-09-12T16:35:37.494Z,49.15
2017-09-12T16:38:05.849Z,49.51
2017-09-12T16:40:34.903Z,49.87
2017-09-12T16:43:03.217Z,50.38
2017-09-12T16:45:32.291Z,51.60
2017-09-12T16:48:00.626Z,51.42
2017-09-12T16:50:28.926Z,51.45
2017-09-12T16:52:57.250Z,52.15
2017-09-12T16:55:26.309Z,52.98
2017-09-12T16:57:54.633Z,71.22
2017-09-12T17:00:23.711Z,75.60
2017-09-12T17:02:52.782Z,76.62
2017-09-12T17:05:21.096Z,77.02
2017-09-12T17:07:49.422Z,79.20
2017-09-12T17:10:17.730Z,79.79
2017-09-12T17:12:46.035Z,77.80
2017-09-12T17:15:14.370Z,78.54
2017-09-12T17:17:42.706Z,78.86
2017-09-12T17:20:11.005Z,79.77
2017-09-12T17:22:39.317Z,80.03
2017-09-12T17:25:07.621Z,79.76
2017-09-12T17:27:35.934Z,79.97
2017-09-12T17:30:04.233Z,79.66
2017-09-12T17:32:32.541Z,80.33
2017-09-12T17:35:01.610Z,81.10
2017-09-12T17:37:29.922Z,81.66
2017-09-12T17:39:58.218Z,81.55
2017-09-12T17:42:26.529Z,81.98
2017-09-12T17:44:54.831Z,82.97
2017-09-12T17:47:23.186Z,82.93
2017-09-12T17:49:51.501Z,82.99
2017-09-12T17:52:20.562Z,84.33
2017-09-12T17:54:48.871Z,84.85
2017-09-12T17:57:17.940Z,85.20
2017-09-12T17:59:46.257Z,85.41
2017-09-12T18:02:14.561Z,85.70
2017-09-12T18:04:42.894Z,86.16
2017-09-12T18:07:11.953Z,86.37
2017-09-12T18:09:40.258Z,85.79
2017-09-12T18:12:09.362Z,85.77
2017-09-12T18:14:38.434Z,85.62
2017-09-12T18:17:06.764Z,85.90
2017-09-12T18:19:35.077Z,86.05
2017-09-12T18:22:03.386Z,85.85
2017-09-12T18:24:32.469Z,86.23
2017-09-12T18:27:00.778Z,86.47
2017-09-12T18:29:29.097Z,86.27
2017-09-12T18:31:57.401Z,85.70
2017-09-12T18:34:25.699Z,85.59
2017-09-12T18:36:54.946Z,84.32
2017-09-12T18:39:23.268Z,84.08
2017-09-12T18:41:51.589Z,83.50
2017-09-12T18:44:19.957Z,83.34
2017-09-12T18:46:48.273Z,82.95
2017-09-12T18:49:16.587Z,82.83
2017-09-12T18:51:45.651Z,81.78
2017-09-12T18:54:13.975Z,80.74
2017-09-12T18:56:42.283Z,81.11
2017-09-12T18:59:10.628Z,82.02
2017-09-12T19:01:38.922Z,82.33
2017-09-12T19:04:07.299Z,82.68
2017-09-12T19:06:35.601Z,82.46
2017-09-12T19:09:03.904Z,83.07
2017-09-12T19:11:32.216Z,83.30
2017-09-12T19:14:00.513Z,83.65
2017-09-12T19:16:28.822Z,84.13
2017-09-12T19:18:57.122Z,84.81
2017-09-12T19:21:26.213Z,84.62
2017-09-12T19:23:55.280Z,84.92
2017-09-12T19:26:23.573Z,84.81
2017-09-12T19:28:51.887Z,85.33
2017-09-12T19:31:20.194Z,85.51
2017-09-12T19:33:48.501Z,86.12
2017-09-12T19:36:16.803Z,85.84
2017-09-12T19:38:45.885Z,86.27
2017-09-12T19:41:14.193Z,86.27
2017-09-12T19:43:42.503Z,86.79
2017-09-12T19:46:10.803Z,86.48
2017-09-12T19:48:39.138Z,86.50
2017-09-12T19:51:07.485Z,85.93
2017-09-12T19:53:36.608Z,86.12
2017-09-12T19:56:04.969Z,85.72
2017-09-12T19:58:33.278Z,85.29
2017-09-12T20:01:01.637Z,85.22
2017-09-12T20:03:29.951Z,85.37
2017-09-12T20:05:58.273Z,85.83
2017-09-12T20:08:26.589Z,85.74
2017-09-12T20:10:54.919Z,85.59
2017-09-12T20:13:23.979Z,85.25
2017-09-12T20:15:52.291Z,84.80
2017-09-12T20:18:20.606Z,84.58
2017-09-12T20:20:48.905Z,84.49
2017-09-12T20:23:17.972Z,84.63
2017-09-12T20:25:46.279Z,85.01
2017-09-12T20:28:15.375Z,84.80
2017-09-12T20:30:44.433Z,84.65
2017-09-12T20:33:13.510Z,84.39
2017-09-12T20:35:41.856Z,84.64
2017-09-12T20:38:10.202Z,84.83
2017-09-12T20:40:38.511Z,84.77
2017-09-12T20:43:06.819Z,84.72
2017-09-12T20:45:35.129Z,84.59
2017-09-12T20:48:03.425Z,84.93
2017-09-12T20:50:32.505Z,84.96
2017-09-12T20:53:00.812Z,84.90
2017-09-12T20:55:29.126Z,84.90
2017-09-12T20:57:57.431Z,85.05
2017-09-12T21:00:25.771Z,84.58
2017-09-12T21:02:54.064Z,84.62
2017-09-12T21:05:22.362Z,84.52
2017-09-12T21:07:50.675Z,84.42
2017-09-12T21:10:18.983Z,84.79
2017-09-12T21:12:47.293Z,84.75
2017-09-12T21:15:15.602Z,84.46
2017-09-12T21:17:43.922Z,84.88
2017-09-12T21:20:12.221Z,85.05
2017-09-12T21:22:40.607Z,85.29
2017-09-12T21:25:08.919Z,85.25
2017-09-12T21:27:37.217Z,85.24
2017-09-12T21:30:05.534Z,85.51
2017-09-12T21:32:33.842Z,85.56
2017-09-12T21:35:02.921Z,85.50
2017-09-12T21:37:31.997Z,85.54
2017-09-12T21:40:00.309Z,85.54
2017-09-12T21:42:29.378Z,85.34
2017-09-12T21:44:57.686Z,85.42
2017-09-12T21:47:25.987Z,85.14
2017-09-12T21:49:54.325Z,85.41
2017-09-12T21:52:23.393Z,84.52
2017-09-12T21:54:51.685Z,84.36
2017-09-12T21:57:19.998Z,84.43
2017-09-12T21:59:48.298Z,84.41
2017-09-12T22:02:16.616Z,84.50
2017-09-12T22:04:44.918Z,84.53
2017-09-12T22:07:13.243Z,84.66
2017-09-12T22:09:41.550Z,84.57
2017-09-12T22:12:09.873Z,84.82
2017-09-12T22:14:38.175Z,84.80
2017-09-12T22:17:06.481Z,85.01
2017-09-12T22:19:34.799Z,84.93
2017-09-12T22:22:03.102Z,84.78
2017-09-12T22:24:31.422Z,84.64
2017-09-12T22:27:00.490Z,84.64
2017-09-12T22:29:28.805Z,84.63
2017-09-12T22:31:57.861Z,84.75
2017-09-12T22:34:26.166Z,84.80
2017-09-12T22:36:55.232Z,85.13
2017-09-12T22:39:23.543Z,85.10
2017-09-12T22:41:52.623Z,85.05
2017-09-12T22:44:20.941Z,84.91
2017-09-12T22:46:49.237Z,85.23
2017-09-12T22:49:17.538Z,85.26
2017-09-12T22:51:45.841Z,85.29
2017-09-12T22:54:14.906Z,84.98
2017-09-12T22:56:43.232Z,85.52
2017-09-12T22:59:11.534Z,85.53
2017-09-12T23:01:39.842Z,85.55
2017-09-12T23:04:08.150Z,85.43
2017-09-12T23:06:37.234Z,85.60
2017-09-12T23:09:05.551Z,85.76
2017-09-12T23:11:33.858Z,85.54
2017-09-12T23:14:02.179Z,85.32
2017-09-12T23:16:31.245Z,85.04
2017-09-12T23:18:59.558Z,85.25
2017-09-12T23:21:27.868Z,85.01
2017-09-12T23:23:56.182Z,85.17
2017-09-12T23:26:24.476Z,85.18
2017-09-12T23:28:53.572Z,85.04
2017-09-12T23:31:22.633Z,84.95
2017-09-12T23:33:51.702Z,85.11
2017-09-12T23:36:20.010Z,84.92
2017-09-12T23:38:48.314Z,85.14
2017-09-12T23:41:17.390Z,85.33
2017-09-12T23:43:45.697Z,84.58
2017-09-12T23:46:14.768Z,84.76
2017-09-12T23:48:43.063Z,84.56
2017-09-12T23:51:12.144Z,84.63
2017-09-12T23:53:40.465Z,84.85
2017-09-12T23:56:08.769Z,84.91
2017-09-12T23:58:37.088Z,85.11
